Time;durP1;ratioP1;P1;durP2;ratioP2;P2;SDS_P1;SDS_P2;PMS_P1;PMS_P2;Temp;Humidity;BMP_temperature;BMP_pressure;BME280_temperature;BME280_humidity;BME280_pressure;Samples;Min_cycle;Max_cycle;Signal;HPM_P1;HPM_P2
2023/04/01 00:00:29;;;;;;;0.30;0.30;;;;;;;7.64;100.00;99830.84;5016718;28;20484;-86
2023/04/01 00:02:55;;;;;;;0.40;0.40;;;;;;;7.80;100.00;99853.13;5016663;28;20079;-81
2023/04/01 00:05:21;;;;;;;0.30;0.30;;;;;;;7.79;100.00;99849.63;5000406;28;20033;-80
2023/04/01 00:07:47;;;;;;;0.30;0.30;;;;;;;7.82;100.00;99862.66;5000022;28;20025;-80
2023/04/01 00:10:14;;;;;;;0.30;0.30;;;;;;;7.79;100.00;99862.19;5016622;28;20379;-81
2023/04/01 00:12:40;;;;;;;0.40;0.40;;;;;;;7.64;100.00;99849.56;5032767;28;20033;-80
2023/04/01 00:15:08;;;;;;;0.40;0.40;;;;;;;7.71;100.00;99863.06;5032782;28;20041;-80
2023/04/01 00:17:34;;;;;;;0.40;0.40;;;;;;;7.74;100.00;99865.41;4983964;28;20113;-82
2023/04/01 00:20:00;;;;;;;0.40;0.40;;;;;;;7.74;100.00;99862.72;5015936;28;20033;-84
2023/04/01 00:22:26;;;;;;;0.40;0.40;;;;;;;7.72;100.00;99870.09;5033596;28;20400;-81
2023/04/01 00:24:53;;;;;;;0.40;0.40;;;;;;;7.71;100.00;99868.44;5000014;28;20087;-81
2023/04/01 00:27:18;;;;;;;0.40;0.40;;;;;;;7.72;100.00;99870.09;4999937;28;20061;-82
2023/04/01 00:29:47;;;;;;;0.40;0.40;;;;;;;7.76;100.00;99868.72;5033366;28;20076;-81
2023/04/01 00:32:14;;;;;;;0.40;0.40;;;;;;;7.78;100.00;99863.19;5032567;28;20384;-82
2023/04/01 00:34:40;;;;;;;0.30;0.30;;;;;;;7.80;100.00;99862.00;5032492;28;20595;-82
2023/04/01 00:37:06;;;;;;;0.30;0.30;;;;;;;7.79;100.00;99868.38;5016007;28;20104;-83
2023/04/01 00:39:32;;;;;;;0.30;0.30;;;;;;;7.69;100.00;99855.22;5015636;28;20083;-82
2023/04/01 00:41:59;;;;;;;0.30;0.30;;;;;;;7.72;100.00;99864.72;5032609;28;20120;-82
2023/04/01 00:44:28;;;;;;;0.30;0.30;;;;;;;7.65;100.00;99866.47;4999904;28;20048;-85
2023/04/01 00:46:53;;;;;;;0.40;0.40;;;;;;;7.58;100.00;99868.19;4999499;28;20130;-82
2023/04/01 00:49:23;;;;;;;0.30;0.30;;;;;;;7.41;100.00;99841.56;5015580;28;20491;-82
2023/04/01 00:51:52;;;;;;;0.30;0.30;;;;;;;7.32;100.00;99850.63;4983741;28;20026;-82
2023/04/01 00:54:19;;;;;;;0.40;0.40;;;;;;;7.30;100.00;99874.03;5015836;28;20038;-82
2023/04/01 00:56:55;;;;;;;0.35;0.35;;;;;;;7.27;100.00;99866.38;4999704;28;20081;-82
2023/04/01 00:59:25;;;;;;;0.30;0.30;;;;;;;7.39;100.00;99870.31;5004705;28;20045;-82
2023/04/01 01:01:50;;;;;;;0.40;0.40;;;;;;;7.48;100.00;99871.09;5019576;28;20037;-82
2023/04/01 01:04:42;;;;;;;0.40;0.40;;;;;;;7.56;100.00;99878.22;5036107;28;20036;-83
2023/04/01 01:07:08;;;;;;;0.40;0.40;;;;;;;7.53;100.00;99865.22;5001276;28;20045;-86
2023/04/01 01:10:02;;;;;;;0.35;0.35;;;;;;;7.65;100.00;99882.53;5036303;28;20075;-80
2023/04/01 01:13:05;;;;;;;0.30;0.30;;;;;;;7.70;100.00;99875.63;5037285;28;20022;-81
2023/04/01 01:15:49;;;;;;;0.30;0.30;;;;;;;7.67;100.00;99878.66;5036197;28;20053;-82
2023/04/01 01:18:44;;;;;;;0.38;0.38;;;;;;;7.73;100.00;99882.47;5019652;28;20128;-82
2023/04/01 01:21:34;;;;;;;0.40;0.40;;;;;;;7.75;100.00;99885.78;4999281;28;20041;-84
2023/04/01 01:24:12;;;;;;;0.30;0.30;;;;;;;7.75;100.00;99884.94;5036888;28;20034;-83
2023/04/01 01:26:37;;;;;;;0.40;0.40;;;;;;;7.54;100.00;99865.06;5037098;28;20452;-85
2023/04/01 01:29:24;;;;;;;0.43;0.43;;;;;;;7.55;100.00;99887.28;5036787;28;20056;-83
2023/04/01 01:32:11;;;;;;;0.30;0.30;;;;;;;7.30;100.00;99870.53;5037096;28;20025;-80
2023/04/01 01:35:13;;;;;;;0.40;0.40;;;;;;;7.11;100.00;99882.50;5036624;28;20519;-80
2023/04/01 01:37:39;;;;;;;0.40;0.40;;;;;;;6.88;100.00;99880.63;5036409;28;20469;-82
2023/04/01 01:40:07;;;;;;;0.40;0.40;;;;;;;6.67;100.00;99880.34;4986742;28;20041;-82
2023/04/01 01:42:36;;;;;;;0.40;0.40;;;;;;;6.58;100.00;99892.91;5002929;28;20036;-82
2023/04/01 01:45:04;;;;;;;0.40;0.40;;;;;;;6.42;100.00;99887.59;5019261;28;20048;-82
2023/04/01 01:47:30;;;;;;;0.40;0.40;;;;;;;6.30;100.00;99895.16;5002963;28;20029;-82
2023/04/01 01:49:56;;;;;;;0.40;0.40;;;;;;;6.18;100.00;99889.31;5019075;28;20361;-81
2023/04/01 01:52:23;;;;;;;0.30;0.30;;;;;;;6.16;100.00;99889.47;5002983;28;20045;-82
2023/04/01 01:54:56;;;;;;;0.40;0.40;;;;;;;6.09;100.00;99893.81;5001717;28;20171;-82
2023/04/01 01:57:28;;;;;;;;;;;;;;;6.10;100.00;99900.00;5002028;28;20119;-80
2023/04/01 01:59:58;;;;;;;0.40;0.40;;;;;;;6.01;100.00;99891.16;5034124;28;19967;-82
2023/04/01 02:02:24;;;;;;;0.40;0.40;;;;;;;5.98;100.00;99901.31;5017267;28;20037;-82
2023/04/01 02:04:50;;;;;;;0.40;0.40;;;;;;;5.97;100.00;99905.00;5017753;28;20033;-82
2023/04/01 02:07:22;;;;;;;0.30;0.30;;;;;;;5.92;100.00;99902.78;5017618;28;20037;-83
2023/04/01 02:09:47;;;;;;;0.40;0.40;;;;;;;5.92;100.00;99908.97;5017219;28;20128;-84
2023/04/01 02:12:15;;;;;;;0.40;0.40;;;;;;;5.90;100.00;99912.78;5033882;28;20175;-81
2023/04/01 02:14:50;;;;;;;0.30;0.30;;;;;;;5.85;100.00;99913.31;5033648;28;20464;-82
2023/04/01 02:17:21;;;;;;;0.35;0.35;;;;;;;5.80;100.00;99920.16;5033629;28;20369;-81
2023/04/01 02:19:50;;;;;;;0.40;0.40;;;;;;;5.75;100.00;99917.97;5017535;28;20029;-82
2023/04/01 02:22:22;;;;;;;0.40;0.40;;;;;;;5.67;100.00;99920.63;5001080;28;20105;-82
2023/04/01 02:24:49;;;;;;;0.40;0.40;;;;;;;5.66;100.00;99910.94;5001106;28;20499;-83
2023/04/01 02:27:16;;;;;;;0.40;0.40;;;;;;;5.65;100.00;99914.63;5017404;28;20033;-81
2023/04/01 02:29:41;;;;;;;0.40;0.40;;;;;;;5.61;100.00;99921.25;5017049;28;20041;-80
2023/04/01 02:32:08;;;;;;;0.40;0.40;;;;;;;5.57;100.00;99917.28;5033649;28;20087;-81
2023/04/01 02:34:34;;;;;;;0.40;0.40;;;;;;;5.58;100.00;99926.94;5033571;28;20040;-81
2023/04/01 02:37:00;;;;;;;0.40;0.40;;;;;;;5.57;100.00;99926.09;5017165;28;20029;-82
2023/04/01 02:39:26;;;;;;;0.40;0.40;;;;;;;5.56;100.00;99932.44;5017084;28;20038;-81
2023/04/01 02:41:52;;;;;;;0.40;0.40;;;;;;;5.45;100.00;99940.72;5033547;28;20479;-81
2023/04/01 02:44:17;;;;;;;0.30;0.30;;;;;;;5.36;100.00;99941.72;5033735;28;20456;-80
2023/04/01 02:46:43;;;;;;;0.40;0.40;;;;;;;5.30;100.00;99940.53;5033146;28;20026;-81
2023/04/01 02:49:09;;;;;;;0.40;0.40;;;;;;;5.33;100.00;99944.72;5033413;28;20029;-80
2023/04/01 02:51:35;;;;;;;0.40;0.40;;;;;;;5.39;100.00;99954.72;5016836;28;20109;-80
2023/04/01 02:54:01;;;;;;;0.40;0.40;;;;;;;5.52;100.00;99952.41;4966341;28;1468148;-80
2023/04/01 02:56:26;;;;;;;0.40;0.40;;;;;;;5.69;100.00;99951.47;5034213;28;20456;-80
2023/04/01 02:58:53;;;;;;;0.40;0.40;;;;;;;5.86;100.00;99956.81;5034222;28;20548;-80
2023/04/01 03:01:19;;;;;;;0.40;0.40;;;;;;;5.77;100.00;99931.97;4984962;28;20048;-79
2023/04/01 03:03:45;;;;;;;0.40;0.40;;;;;;;5.95;100.00;99934.50;5017828;28;20103;-88
2023/04/01 03:06:13;;;;;;;0.40;0.40;;;;;;;6.10;100.00;99948.88;5035172;28;20497;-80
2023/04/01 03:08:39;;;;;;;0.40;0.40;;;;;;;6.14;100.00;99949.38;5017630;28;20026;-80
2023/04/01 03:11:05;;;;;;;0.40;0.40;;;;;;;6.10;100.00;99950.72;5033862;28;20450;-83
2023/04/01 03:13:32;;;;;;;0.40;0.40;;;;;;;6.15;100.00;99951.88;5017200;28;20026;-81
2023/04/01 03:15:57;;;;;;;0.40;0.40;;;;;;;6.25;100.00;99951.72;5001216;28;20133;-80
2023/04/01 03:18:23;;;;;;;0.40;0.40;;;;;;;6.34;100.00;99949.84;5034515;28;20064;-80
2023/04/01 03:20:49;;;;;;;0.40;0.40;;;;;;;6.41;100.00;99953.53;5016423;28;20108;-84
2023/04/01 03:23:17;;;;;;;0.40;0.40;;;;;;;6.40;100.00;99959.84;5033633;28;20099;-80
2023/04/01 03:25:43;;;;;;;0.40;0.40;;;;;;;6.29;100.00;99960.22;5033365;28;20100;-80
2023/04/01 03:28:08;;;;;;;0.40;0.40;;;;;;;6.09;100.00;99960.56;5016862;28;20156;-87
2023/04/01 03:30:34;;;;;;;0.40;0.40;;;;;;;6.16;100.00;99963.38;5033655;28;20365;-79
2023/04/01 03:33:00;;;;;;;0.40;0.40;;;;;;;6.18;100.00;99977.41;5033215;28;20036;-80
2023/04/01 03:35:26;;;;;;;0.40;0.40;;;;;;;6.04;100.00;99978.06;5033147;28;20482;-81
2023/04/01 03:37:53;;;;;;;0.38;0.38;;;;;;;5.87;100.00;99986.00;5033283;28;20029;-84
2023/04/01 03:40:19;;;;;;;0.40;0.40;;;;;;;5.82;100.00;99991.00;5000525;28;20123;-81
2023/04/01 03:42:44;;;;;;;0.40;0.40;;;;;;;5.84;100.00;99974.81;5017043;28;20065;-81
2023/04/01 03:45:11;;;;;;;0.30;0.30;;;;;;;6.01;100.00;99991.75;5033385;28;20481;-80
2023/04/01 03:47:38;;;;;;;0.40;0.40;;;;;;;6.10;100.00;99991.56;5033001;28;20403;-83
2023/04/01 03:50:07;;;;;;;0.30;0.30;;;;;;;6.25;100.00;99999.75;4984452;28;20087;-80
2023/04/01 03:52:33;;;;;;;0.43;0.43;;;;;;;6.34;100.00;99992.56;5016467;28;20068;-80
2023/04/01 03:54:59;;;;;;;0.40;0.40;;;;;;;6.38;100.00;99996.59;5016411;28;20482;-81
2023/04/01 03:57:24;;;;;;;0.30;0.30;;;;;;;6.45;100.00;100007.44;5016637;28;20030;-81
2023/04/01 03:59:50;;;;;;;0.38;0.38;;;;;;;6.52;100.00;99992.41;5016249;28;20064;-81
2023/04/01 04:02:16;;;;;;;0.30;0.30;;;;;;;6.45;100.00;99994.91;5016298;28;20030;-80
2023/04/01 04:04:42;;;;;;;0.30;0.30;;;;;;;6.42;100.00;100005.09;5033122;28;20064;-81
2023/04/01 04:07:08;;;;;;;0.40;0.40;;;;;;;6.48;100.00;100015.09;5032889;28;20063;-81
2023/04/01 04:09:33;;;;;;;0.43;0.43;;;;;;;6.55;100.00;100014.25;5032494;28;20083;-80
2023/04/01 04:12:00;;;;;;;0.30;0.30;;;;;;;6.60;100.00;100019.94;5016332;28;20088;-80
2023/04/01 04:14:25;;;;;;;0.40;0.40;;;;;;;6.68;100.00;100020.94;5016449;28;20041;-80
2023/04/01 04:16:51;;;;;;;0.40;0.40;;;;;;;6.80;100.00;100028.44;4999878;28;20124;-80
2023/04/01 04:19:16;;;;;;;0.40;0.40;;;;;;;6.88;100.00;100032.09;5002139;28;20088;-81
2023/04/01 04:21:42;;;;;;;0.30;0.30;;;;;;;6.81;100.00;100019.41;5035721;28;20048;-80
2023/04/01 04:24:08;;;;;;;0.30;0.30;;;;;;;6.93;100.00;100046.63;5018992;28;20148;-80
2023/04/01 04:26:34;;;;;;;0.35;0.35;;;;;;;6.99;100.00;100040.59;5020838;28;20030;-81
2023/04/01 04:29:01;;;;;;;0.40;0.40;;;;;;;7.05;100.00;100049.78;5016609;28;20461;-80
2023/04/01 04:31:27;;;;;;;0.30;0.30;;;;;;;7.09;100.00;100055.59;5016452;28;20040;-81
2023/04/01 04:33:53;;;;;;;0.30;0.30;;;;;;;7.09;100.00;100061.78;5032425;28;20464;-81
2023/04/01 04:36:19;;;;;;;0.40;0.40;;;;;;;7.21;100.00;100071.13;5032772;28;20068;-80
2023/04/01 04:38:45;;;;;;;0.38;0.38;;;;;;;7.22;100.00;100071.94;4999880;28;20037;-80
2023/04/01 04:41:15;;;;;;;0.40;0.40;;;;;;;7.16;100.00;100069.97;5032471;28;20041;-80
2023/04/01 04:43:41;;;;;;;0.43;0.43;;;;;;;7.09;100.00;100079.66;5032640;28;20411;-80
2023/04/01 04:46:10;;;;;;;0.40;0.40;;;;;;;6.98;100.00;100079.00;4999885;28;20046;-80
2023/04/01 04:48:36;;;;;;;0.40;0.40;;;;;;;7.02;100.00;100099.06;5032493;28;20369;-81
2023/04/01 04:51:02;;;;;;;0.30;0.30;;;;;;;7.07;100.00;100095.91;5016135;28;20128;-80
2023/04/01 04:53:29;;;;;;;0.30;0.30;;;;;;;7.16;100.00;100096.69;5032063;28;20383;-80
2023/04/01 04:55:55;;;;;;;0.40;0.40;;;;;;;7.24;100.00;100108.22;5032376;28;20432;-80
2023/04/01 04:58:20;;;;;;;0.40;0.40;;;;;;;7.27;100.00;100112.38;5032408;28;20030;-80
2023/04/01 05:00:46;;;;;;;0.40;0.40;;;;;;;7.27;100.00;100115.88;4999655;28;20034;-83
2023/04/01 05:03:13;;;;;;;0.30;0.30;;;;;;;7.31;100.00;100119.06;5031970;28;20388;-79
2023/04/01 05:05:39;;;;;;;0.40;0.40;;;;;;;7.32;100.00;100122.56;5032518;28;20132;-80
2023/04/01 05:08:05;;;;;;;0.40;0.40;;;;;;;7.26;100.00;100116.06;5032349;28;20030;-82
2023/04/01 05:10:31;;;;;;;0.40;0.40;;;;;;;7.27;100.00;100112.38;5032261;28;20068;-79
2023/04/01 05:12:58;;;;;;;0.40;0.40;;;;;;;7.36;100.00;100134.63;5015894;28;20057;-81
2023/04/01 05:15:24;;;;;;;0.30;0.30;;;;;;;7.35;100.00;100131.09;5015765;28;20037;-80
2023/04/01 05:17:49;;;;;;;0.40;0.40;;;;;;;7.29;100.00;100131.78;5015824;28;20053;-82
2023/04/01 05:20:16;;;;;;;0.35;0.35;;;;;;;7.30;100.00;100133.44;5015811;28;20034;-81
2023/04/01 05:22:42;;;;;;;0.40;0.40;;;;;;;7.35;100.00;100147.13;5015763;28;20037;-83
2023/04/01 05:25:07;;;;;;;0.30;0.30;;;;;;;7.31;100.00;100145.81;5032094;28;20034;-81
2023/04/01 05:27:33;;;;;;;0.40;0.40;;;;;;;7.21;100.00;100140.66;5032084;28;20040;-80
2023/04/01 05:29:59;;;;;;;0.30;0.30;;;;;;;7.22;100.00;100158.38;5032062;28;20033;-83
2023/04/01 05:32:25;;;;;;;0.40;0.40;;;;;;;7.19;100.00;100169.38;5032218;28;20036;-80
2023/04/01 05:34:51;;;;;;;0.40;0.40;;;;;;;7.11;100.00;100160.53;5031730;28;20029;-83
2023/04/01 05:37:17;;;;;;;0.40;0.40;;;;;;;7.11;100.00;100176.59;4999002;28;20037;-81
2023/04/01 05:39:43;;;;;;;0.40;0.40;;;;;;;7.12;100.00;100181.78;4999214;28;20029;-81
2023/04/01 05:42:11;;;;;;;0.47;0.47;;;;;;;7.11;100.00;100177.41;5031710;28;20092;-80
2023/04/01 05:44:37;;;;;;;0.30;0.30;;;;;;;7.22;100.00;100182.44;5001488;28;20471;-80
2023/04/01 05:47:04;;;;;;;0.43;0.40;;;;;;;7.29;100.00;100195.97;5019065;28;20033;-85
2023/04/01 05:49:30;;;;;;;0.40;0.40;;;;;;;7.21;100.00;100187.94;5035451;28;20049;-84
2023/04/01 05:51:56;;;;;;;0.30;0.30;;;;;;;7.18;100.00;100207.81;5035493;28;20034;-82
2023/04/01 05:54:22;;;;;;;0.40;0.40;;;;;;;7.27;100.00;100212.16;5002698;28;20063;-82
2023/04/01 05:56:48;;;;;;;0.30;0.30;;;;;;;7.33;100.00;100209.81;5002800;28;20033;-82
2023/04/01 05:59:14;;;;;;;0.30;0.30;;;;;;;7.42;100.00;100224.88;5019147;28;20048;-82
2023/04/01 06:01:40;;;;;;;0.40;0.40;;;;;;;7.37;100.00;100228.03;5034960;28;20026;-81
2023/04/01 06:04:06;;;;;;;0.40;0.40;;;;;;;7.24;100.00;100228.53;5036489;28;20037;-80
2023/04/01 06:06:32;;;;;;;0.40;0.40;;;;;;;7.10;100.00;100231.91;5035035;28;20182;-80
2023/04/01 06:09:07;;;;;;;0.40;0.40;;;;;;;7.01;100.00;100233.72;4986410;28;20551;-80
2023/04/01 06:11:56;;;;;;;0.30;0.30;;;;;;;6.95;100.00;100249.56;5035111;28;20092;-81
2023/04/01 06:14:40;;;;;;;1.00;0.43;;;;;;;6.87;100.00;100255.75;5017860;28;20068;-81
2023/04/01 06:17:26;;;;;;;0.40;0.40;;;;;;;6.79;100.00;100264.56;5018760;28;20099;-82
2023/04/01 06:20:06;;;;;;;0.60;0.57;;;;;;;6.83;100.00;100259.75;5034826;28;20171;-80
2023/04/01 06:22:50;;;;;;;0.40;0.40;;;;;;;7.00;100.00;100276.66;5018712;28;20029;-81
2023/04/01 06:25:40;;;;;;;2.95;0.77;;;;;;;6.96;100.00;100276.16;5034934;28;20088;-80
2023/04/01 06:28:06;;;;;;;0.50;0.50;;;;;;;7.00;100.00;100287.34;5034708;28;20037;-81
2023/04/01 06:30:40;;;;;;;1.20;0.50;;;;;;;6.93;100.00;100284.50;5034845;28;20044;-84
2023/04/01 06:33:37;;;;;;;0.40;0.40;;;;;;;6.89;100.00;100288.50;5034817;28;20037;-83
2023/04/01 06:36:03;;;;;;;0.40;0.40;;;;;;;6.89;100.00;100303.69;5034851;28;20087;-81
2023/04/01 06:38:52;;;;;;;0.40;0.40;;;;;;;6.88;100.00;100304.69;5018390;28;20429;-80
2023/04/01 06:42:03;;;;;;;0.50;0.50;;;;;;;6.92;100.00;100306.03;5018422;28;20030;-81
2023/04/01 06:44:32;;;;;;;0.40;0.40;;;;;;;6.95;100.00;100314.56;5018083;28;20083;-83
2023/04/01 06:47:14;;;;;;;0.82;0.82;;;;;;;6.99;100.00;100318.59;5017935;28;20132;-81
2023/04/01 06:50:05;;;;;;;0.73;0.55;;;;;;;7.05;100.00;100314.44;5018243;28;20531;-80
2023/04/01 06:52:40;;;;;;;0.40;0.40;;;;;;;7.10;100.00;100335.31;5034486;28;20029;-80
2023/04/01 06:55:24;;;;;;;0.40;0.40;;;;;;;7.11;100.00;100343.16;5016912;28;20116;-80
2023/04/01 06:57:53;;;;;;;0.40;0.40;;;;;;;7.14;100.00;100342.84;5035090;28;20034;-81
2023/04/01 07:00:26;;;;;;;0.40;0.40;;;;;;;7.12;100.00;100350.22;5017585;28;20056;-81
2023/04/01 07:03:07;;;;;;;0.40;0.40;;;;;;;7.23;100.00;100363.25;5017733;28;20034;-80
2023/04/01 07:05:33;;;;;;;0.40;0.40;;;;;;;7.29;100.00;100361.75;5034966;28;20040;-82
2023/04/01 07:08:02;;;;;;;2.38;0.50;;;;;;;7.31;100.00;100369.63;5033809;28;20038;-81
2023/04/01 07:10:40;;;;;;;0.40;0.40;;;;;;;7.32;100.00;100374.81;5001315;28;20144;-80
2023/04/01 07:13:12;;;;;;;0.47;0.47;;;;;;;7.27;100.00;100363.75;5033983;28;20025;-80
2023/04/01 07:15:45;;;;;;;0.73;0.73;;;;;;;7.51;100.00;100391.56;5001080;28;20115;-81
2023/04/01 07:18:21;;;;;;;0.40;0.40;;;;;;;7.66;100.00;100398.78;5017520;28;20033;-81
2023/04/01 07:20:47;;;;;;;0.40;0.40;;;;;;;7.73;100.00;100396.28;5017058;28;20025;-81
2023/04/01 07:23:37;;;;;;;0.40;0.40;;;;;;;8.04;100.00;100411.66;5001177;28;20033;-80
2023/04/01 07:26:29;;;;;;;0.40;0.40;;;;;;;8.22;100.00;100423.03;5033629;28;20392;-81
2023/04/01 07:28:56;;;;;;;0.40;0.40;;;;;;;8.28;100.00;100416.16;5033576;28;20124;-82
2023/04/01 07:31:39;;;;;;;0.32;0.32;;;;;;;8.48;100.00;100428.22;5000879;28;20037;-81
2023/04/01 07:34:25;;;;;;;;;;;;;;;8.72;100.00;100427.34;5017620;28;20196;-82
2023/04/01 07:37:06;;;;;;;0.40;0.40;;;;;;;8.94;100.00;100417.69;5066347;28;19909;-81
2023/04/01 07:40:08;;;;;;;0.40;0.40;;;;;;;9.34;100.00;100439.16;5033090;28;20045;-81
2023/04/01 07:42:43;;;;;;;0.40;0.40;;;;;;;9.31;100.00;100431.47;5033943;28;20026;-80
2023/04/01 07:45:25;;;;;;;0.40;0.40;;;;;;;9.20;100.00;100454.97;5033760;28;20037;-80
2023/04/01 07:48:15;;;;;;;0.40;0.40;;;;;;;9.28;100.00;100472.88;5001159;28;20033;-82
2023/04/01 07:50:54;;;;;;;1.17;0.50;;;;;;;9.25;100.00;100459.81;5016911;28;20140;-82
2023/04/01 07:53:33;;;;;;;0.40;0.40;;;;;;;9.56;100.00;100486.69;5034071;28;20033;-81
2023/04/01 07:55:58;;;;;;;2.08;0.57;;;;;;;9.75;100.00;100496.13;5033268;28;20037;-80
2023/04/01 07:58:40;;;;;;;0.70;0.70;;;;;;;9.62;100.00;100503.94;5033328;28;20041;-83
2023/04/01 08:01:10;;;;;;;0.45;0.45;;;;;;;9.48;100.00;100499.31;5034144;28;20037;-80
2023/04/01 08:03:53;;;;;;;0.40;0.40;;;;;;;9.40;100.00;100514.44;5016803;28;20107;-81
2023/04/01 08:06:22;;;;;;;0.52;0.52;;;;;;;9.32;100.00;100516.31;4999987;28;20033;-81
2023/04/01 08:08:54;;;;;;;0.40;0.40;;;;;;;9.09;100.00;100517.06;5032791;28;20132;-80
2023/04/01 08:11:19;;;;;;;0.50;0.50;;;;;;;9.16;100.00;100528.78;5016454;28;20496;-80
2023/04/01 08:14:08;;;;;;;1.58;0.52;;;;;;;9.38;100.00;100526.34;5033719;28;20029;-80
2023/04/01 08:16:42;;;;;;;0.40;0.40;;;;;;;9.42;100.00;100522.28;5016145;28;20034;-81
2023/04/01 08:19:45;;;;;;;0.45;0.45;;;;;;;9.42;100.00;100535.72;5016108;28;20040;-82
2023/04/01 08:22:23;;;;;;;0.50;0.50;;;;;;;9.49;100.00;100546.59;5033820;28;20065;-81
2023/04/01 08:24:49;;;;;;;0.45;0.45;;;;;;;9.91;100.00;100555.13;4999981;28;20033;-80
2023/04/01 08:27:18;;;;;;;0.40;0.40;;;;;;;10.21;100.00;100559.81;5016005;28;20042;-79
2023/04/01 08:29:56;;;;;;;0.50;0.50;;;;;;;11.21;100.00;100573.09;5032669;28;20463;-80
2023/04/01 08:32:29;;;;;;;1.52;0.70;;;;;;;11.49;100.00;100575.16;4999764;28;20029;-80
2023/04/01 08:35:09;;;;;;;0.50;0.50;;;;;;;12.09;100.00;100574.91;5032121;28;20033;-80
2023/04/01 08:37:38;;;;;;;0.40;0.40;;;;;;;11.42;100.00;100575.06;5016168;28;20041;-82
2023/04/01 08:40:35;;;;;;;0.75;0.40;;;;;;;10.86;100.00;100575.47;4999801;28;20041;-80
2023/04/01 08:43:12;;;;;;;0.63;0.60;;;;;;;11.24;100.00;100575.41;5016398;28;20107;-79
2023/04/01 08:45:50;;;;;;;0.50;0.50;;;;;;;11.60;100.00;100580.06;5015810;28;20037;-79
2023/04/01 08:48:52;;;;;;;0.70;0.70;;;;;;;13.74;100.00;100595.34;5032578;28;20029;-80
2023/04/01 08:51:30;;;;;;;0.90;0.90;;;;;;;15.88;98.11;100605.31;5011484;28;20088;-80
2023/04/01 08:54:20;;;;;;;2.80;0.90;;;;;;;17.01;92.11;100609.22;5030701;28;20199;-80
2023/04/01 08:57:00;;;;;;;1.42;0.98;;;;;;;18.05;86.55;100601.25;5033791;28;20042;-80
2023/04/01 08:59:31;;;;;;;0.70;0.70;;;;;;;18.30;84.40;100621.03;5032072;28;20396;-80
2023/04/01 09:02:09;;;;;;;1.92;0.80;;;;;;;17.98;82.29;100615.78;5032090;28;20072;-80
2023/04/01 09:05:16;;;;;;;0.82;0.82;;;;;;;18.22;83.89;100613.19;5032449;28;20045;-79
2023/04/01 09:08:03;;;;;;;2.40;1.10;;;;;;;19.26;80.38;100634.66;5032168;28;20033;-80
2023/04/01 09:10:58;;;;;;;0.50;0.50;;;;;;;17.24;85.94;100616.78;5015583;28;20041;-80
2023/04/01 09:13:32;;;;;;;0.98;0.52;;;;;;;15.53;94.05;100630.00;5021323;28;20045;-81
2023/04/01 09:16:19;;;;;;;0.88;0.68;;;;;;;15.01;100.00;100641.69;5032232;28;20033;-78
2023/04/01 09:19:10;;;;;;;0.60;0.60;;;;;;;14.44;100.00;100651.97;5032649;28;20026;-81
2023/04/01 09:21:45;;;;;;;0.60;0.60;;;;;;;13.61;100.00;100658.25;5019151;28;20041;-82
2023/04/01 09:24:29;;;;;;;0.70;0.70;;;;;;;12.93;100.00;100659.75;5035824;28;20054;-82
2023/04/01 09:27:18;;;;;;;0.50;0.50;;;;;;;12.85;100.00;100654.50;5037752;28;20029;-82
2023/04/01 09:30:05;;;;;;;0.57;0.57;;;;;;;12.78;100.00;100657.16;5037342;28;20040;-82
2023/04/01 09:32:53;;;;;;;0.73;0.73;;;;;;;12.24;100.00;100665.66;5037232;28;20037;-84
2023/04/01 09:35:43;;;;;;;0.50;0.50;;;;;;;11.80;100.00;100674.59;5036885;28;20030;-86
2023/04/01 09:38:29;;;;;;;1.35;1.25;;;;;;;13.25;100.00;100669.16;5035615;28;20117;-82
2023/04/01 09:41:14;;;;;;;2.90;0.77;;;;;;;14.08;100.00;100672.84;5035656;28;20038;-83
2023/04/01 09:43:52;;;;;;;1.45;0.88;;;;;;;13.81;100.00;100690.81;5035275;28;20030;-85
2023/04/01 09:46:23;;;;;;;0.95;0.73;;;;;;;14.64;100.00;100690.78;5034831;28;20029;-84
2023/04/01 09:49:04;;;;;;;5.57;0.85;;;;;;;17.39;93.73;100704.22;5000743;28;20384;-79
2023/04/01 09:51:30;;;;;;;4.55;1.20;;;;;;;17.85;93.25;100704.88;5036197;28;20036;-80
2023/04/01 09:54:47;;;;;;;3.13;1.38;;;;;;;19.85;81.54;100711.06;5036620;28;20045;-79
2023/04/01 09:57:48;;;;;;;4.68;1.70;;;;;;;21.70;71.98;100713.50;4976599;28;20045;-79
2023/04/01 10:00:30;;;;;;;2.92;1.60;;;;;;;21.34;78.14;100701.97;5018884;28;20513;-81
2023/04/01 10:03:20;;;;;;;2.75;1.77;;;;;;;19.82;83.35;100733.34;5018809;28;20042;-79
2023/04/01 10:06:13;;;;;;;2.35;1.38;;;;;;;17.88;87.05;100715.31;5036294;28;20041;-79
2023/04/01 10:09:14;;;;;;;3.83;1.70;;;;;;;17.37;91.63;100711.78;5034880;28;20433;-78
2023/04/01 10:11:58;;;;;;;4.37;1.40;;;;;;;17.65;87.21;100741.22;5034999;28;20053;-80
2023/04/01 10:14:37;;;;;;;6.88;1.73;;;;;;;15.76;83.82;100742.56;5036227;28;20586;-79
2023/04/01 10:17:17;;;;;;;8.52;2.40;;;;;;;15.59;95.59;100734.00;5035919;28;20025;-78
2023/04/01 10:20:05;;;;;;;2.38;1.20;;;;;;;14.49;100.00;100749.59;5034996;28;20033;-80
2023/04/01 10:22:43;;;;;;;3.95;1.20;;;;;;;13.99;100.00;100757.03;5035918;28;20459;-78
2023/04/01 10:25:37;;;;;;;7.85;1.30;;;;;;;13.59;100.00;100754.88;5034970;28;20057;-78
2023/04/01 10:28:35;;;;;;;5.10;1.00;;;;;;;12.86;100.00;100761.41;5034733;28;20033;-79
2023/04/01 10:31:24;;;;;;;4.00;0.98;;;;;;;12.20;100.00;100777.59;5034233;28;20486;-79
2023/04/01 10:34:14;;;;;;;2.95;1.15;;;;;;;12.14;100.00;100783.72;5024633;28;20038;-78
2023/04/01 10:36:57;;;;;;;2.92;1.85;;;;;;;12.27;100.00;100789.31;5034204;28;20029;-80
2023/04/01 10:40:00;;;;;;;3.85;1.33;;;;;;;12.03;100.00;100810.09;5034572;28;20099;-80
2023/04/01 10:42:41;;;;;;;1.73;1.42;;;;;;;16.10;92.47;100803.00;5034710;28;20130;-78
2023/04/01 10:45:44;;;;;;;2.63;1.25;;;;;;;14.75;86.88;100819.25;5034403;28;20033;-78
2023/04/01 10:48:44;;;;;;;5.93;2.10;;;;;;;18.18;77.12;100827.81;5035158;28;20431;-78
2023/04/01 10:51:32;;;;;;;6.10;1.50;;;;;;;21.13;67.96;100825.75;5026873;28;20045;-78
2023/04/01 10:54:19;;;;;;;4.05;1.65;;;;;;;20.51;65.65;100832.66;5017764;28;20041;-79
2023/04/01 10:57:20;;;;;;;5.13;1.05;;;;;;;19.84;70.07;100832.19;5035016;28;20032;-79
2023/04/01 11:00:00;;;;;;;2.50;0.73;;;;;;;16.64;78.38;100827.06;5033844;28;20099;-79
2023/04/01 11:03:00;;;;;;;5.57;1.13;;;;;;;15.24;84.08;100842.56;5034941;28;20029;-79
2023/04/01 11:06:03;;;;;;;4.80;1.92;;;;;;;14.82;87.22;100849.91;5035170;28;20033;-79
2023/04/01 11:08:57;;;;;;;5.55;1.38;;;;;;;16.19;80.43;100851.38;5034831;28;20036;-80
2023/04/01 11:11:43;;;;;;;5.32;1.60;;;;;;;16.47;78.45;100858.44;5035024;28;20036;-78
2023/04/01 11:14:09;;;;;;;6.60;1.65;;;;;;;16.92;72.94;100844.97;5035057;28;20048;-78
2023/04/01 11:17:12;;;;;;;6.75;1.85;;;;;;;15.89;71.05;100866.44;5033503;28;20025;-79
2023/04/01 11:19:43;;;;;;;7.43;2.13;;;;;;;14.91;71.23;100864.09;5034870;28;20036;-79
2023/04/01 11:22:46;;;;;;;5.43;1.42;;;;;;;14.66;74.78;100869.16;5034665;28;20052;-78
2023/04/01 11:25:38;;;;;;;4.57;1.05;;;;;;;14.95;72.64;100879.75;5015120;28;20042;-79
2023/04/01 11:28:16;;;;;;;3.85;1.55;;;;;;;18.17;59.60;100882.44;5015614;28;20041;-78
2023/04/01 11:31:04;;;;;;;7.32;1.00;;;;;;;19.32;49.01;100887.28;5033668;28;20476;-79
2023/04/01 11:33:40;;;;;;;6.05;1.42;;;;;;;17.12;51.40;100888.34;5033292;28;20472;-78
2023/04/01 11:36:43;;;;;;;3.78;1.48;;;;;;;15.66;53.73;100889.31;5033442;28;20037;-78
2023/04/01 11:39:32;;;;;;;2.92;1.45;;;;;;;14.48;57.42;100907.56;5016065;28;20041;-78
2023/04/01 11:42:16;;;;;;;4.85;1.35;;;;;;;13.94;58.52;100905.44;5016046;28;20030;-78
2023/04/01 11:44:53;;;;;;;3.28;1.02;;;;;;;13.61;62.57;100914.09;5034459;28;20078;-78
2023/04/01 11:47:44;;;;;;;4.65;2.15;;;;;;;13.65;60.66;100912.66;5033277;28;20026;-78
2023/04/01 11:50:48;;;;;;;3.00;1.02;;;;;;;13.92;61.68;100918.31;5017018;28;20480;-79
2023/04/01 11:53:15;;;;;;;2.60;1.35;;;;;;;14.48;58.22;100932.72;5033049;28;20037;-82
2023/04/01 11:55:53;;;;;;;4.32;1.15;;;;;;;15.23;56.72;100926.72;5032754;28;20029;-79
2023/04/01 11:58:42;;;;;;;7.90;1.88;;;;;;;17.49;50.58;100927.47;5032972;28;20468;-78
2023/04/01 12:01:31;;;;;;;3.25;0.95;;;;;;;18.72;45.34;100937.00;5016518;28;20030;-79
2023/04/01 12:04:12;;;;;;;4.25;1.08;;;;;;;18.22;44.75;100937.06;5016420;28;20502;-78